Brechin, United Kingdom
Current Conditions -  °F | °C
As of 8:20 PM on Wednesday 22 Oct 2014 (Local Time) from EGPN Reporting Station
Broken Clouds Broken Clouds  
Wind Chill: 12°   Ceiling: 3200
Heat Index: 12°   Visibility: 6mi
Dew Point: 10°   Wind: 17mph
Humidity: 88%   Direction: 230°SW
Pressure: 29.88"   Gusts: NA
Location:  56.73°N, 2.66°W
Report Text: EGPN 221920Z 23015KT 9999 SCT022 BKN032 12/10 Q1012
Loading
Personal Weather Stations






























Interactive Weather Map
Tropical Storm Tracking
New forecast layout! Learn more

10-Day Weather Forecast

Advertisements
Track Severe Weather on mobile